createdAt,value
2017-08-07T13:18:29.275Z,2.40
2017-08-07T13:20:57.620Z,2.20
2017-08-07T13:23:25.953Z,2.63
2017-08-07T13:25:54.333Z,2.20
2017-08-07T13:28:23.142Z,2.20
2017-08-07T13:30:51.651Z,1.83
2017-08-07T13:33:20.781Z,1.90
2017-08-07T13:35:49.162Z,1.80
2017-08-07T13:38:17.512Z,1.90
2017-08-07T13:40:47.761Z,2.10
2017-08-07T13:43:16.180Z,3.00
2017-08-07T13:45:44.510Z,1.80
2017-08-07T13:48:12.914Z,2.23
2017-08-07T13:50:41.271Z,2.33
2017-08-07T13:53:09.671Z,1.83
2017-08-07T13:55:38.028Z,1.70
2017-08-07T13:58:06.378Z,1.50
2017-08-07T14:00:35.708Z,1.80
2017-08-07T14:03:04.108Z,2.73
2017-08-07T14:05:32.967Z,2.00
2017-08-07T14:08:02.648Z,2.40
2017-08-07T14:10:31.202Z,2.23
2017-08-07T14:13:00.094Z,2.90
2017-08-07T14:15:28.426Z,2.10
2017-08-07T14:17:56.752Z,2.50
2017-08-07T14:20:25.184Z,1.93
2017-08-07T14:22:53.527Z,2.43
2017-08-07T14:25:22.721Z,2.43
2017-08-07T14:27:51.834Z,2.33
2017-08-07T14:30:20.178Z,1.90
2017-08-07T14:32:48.571Z,1.73
2017-08-07T14:35:17.705Z,1.80
2017-08-07T14:37:46.106Z,1.70
2017-08-07T14:40:14.454Z,2.53
2017-08-07T14:42:43.630Z,2.40
2017-08-07T14:45:13.708Z,1.83
2017-08-07T14:47:42.055Z,2.10
2017-08-07T14:50:12.184Z,1.90
2017-08-07T14:52:40.683Z,1.77
2017-08-07T14:55:09.089Z,2.00
2017-08-07T14:57:38.192Z,2.30
2017-08-07T15:00:07.335Z,2.40
2017-08-07T15:02:39.293Z,2.57
2017-08-07T15:05:15.942Z,1.80
2017-08-07T15:07:44.434Z,2.10
2017-08-07T15:10:12.858Z,2.10
2017-08-07T15:12:41.223Z,2.30
2017-08-07T15:15:09.561Z,2.10
2017-08-07T15:17:37.926Z,2.67
2017-08-07T15:20:06.263Z,2.50
2017-08-07T17:01:28.549Z,2.90
2017-08-07T17:09:51.221Z,6.80
2017-08-07T23:10:04.892Z,5.50
2017-08-07T23:12:33.415Z,4.83
2017-08-07T23:15:02.228Z,5.37
2017-08-07T23:17:31.325Z,5.77
2017-08-07T23:20:00.549Z,5.23
2017-08-07T23:22:29.713Z,4.93
2017-08-07T23:24:58.825Z,5.73
2017-08-07T23:27:28.058Z,5.47
2017-08-07T23:29:57.303Z,6.07
2017-08-07T23:32:25.723Z,5.17
2017-08-07T23:34:54.258Z,5.93
2017-08-07T23:37:22.638Z,5.60
2017-08-07T23:39:51.170Z,5.03
2017-08-07T23:42:19.970Z,5.20
2017-08-07T23:44:48.345Z,5.10
2017-08-07T23:47:16.719Z,5.73
2017-08-07T23:49:46.957Z,5.17
2017-08-07T23:52:15.759Z,5.97
2017-08-07T23:54:45.024Z,4.93
2017-08-07T23:57:15.645Z,5.97
2017-08-07T23:59:44.086Z,6.23
